sensor_id;sensor_type;location;lat;lon;timestamp;temperature;humidity
41471;DHT22;27211;51.220;5.308;2023-02-28T05:48:10;0.80;99.90
41471;DHT22;27211;51.220;5.308;2023-02-28T05:50:40;0.70;99.90
41471;DHT22;27211;51.220;5.308;2023-02-28T05:53:07;0.70;99.90
41471;DHT22;27211;51.220;5.308;2023-02-28T05:55:37;0.70;99.90
41471;DHT22;27211;51.220;5.308;2023-02-28T05:58:03;0.70;99.90
41471;DHT22;27211;51.220;5.308;2023-02-28T06:00:31;0.60;99.90
41471;DHT22;27211;51.220;5.308;2023-02-28T06:02:58;0.60;99.90
41471;DHT22;27211;51.220;5.308;2023-02-28T06:05:27;0.70;99.90
41471;DHT22;27211;51.220;5.308;2023-02-28T06:07:53;0.70;99.90
41471;DHT22;27211;51.220;5.308;2023-02-28T06:10:19;0.70;99.90
41471;DHT22;27211;51.220;5.308;2023-02-28T06:12:48;0.70;99.90
41471;DHT22;27211;51.220;5.308;2023-02-28T06:15:18;0.80;99.90
41471;DHT22;27211;51.220;5.308;2023-02-28T06:17:46;0.80;99.90
41471;DHT22;27211;51.220;5.308;2023-02-28T06:20:14;0.70;99.90
41471;DHT22;27211;51.220;5.308;2023-02-28T06:22:42;0.80;99.90
41471;DHT22;27211;51.220;5.308;2023-02-28T06:25:10;0.80;99.90
41471;DHT22;27211;51.220;5.308;2023-02-28T06:27:37;0.70;99.90
41471;DHT22;27211;51.220;5.308;2023-02-28T06:30:04;0.80;99.90
41471;DHT22;27211;51.220;5.308;2023-02-28T06:32:31;1.00;99.90
41471;DHT22;27211;51.220;5.308;2023-02-28T06:34:58;0.90;99.90
41471;DHT22;27211;51.220;5.308;2023-02-28T06:37:26;0.90;99.90
41471;DHT22;27211;51.220;5.308;2023-02-28T06:39:56;0.80;99.90
41471;DHT22;27211;51.220;5.308;2023-02-28T06:42:24;0.80;99.90
41471;DHT22;27211;51.220;5.308;2023-02-28T06:44:57;0.70;99.90
41471;DHT22;27211;51.220;5.308;2023-02-28T06:47:23;0.70;99.90
41471;DHT22;27211;51.220;5.308;2023-02-28T06:49:50;0.70;99.90
41471;DHT22;27211;51.220;5.308;2023-02-28T06:52:18;0.70;99.90
41471;DHT22;27211;51.220;5.308;2023-02-28T06:54:47;0.80;99.90
41471;DHT22;27211;51.220;5.308;2023-02-28T06:57:26;1.00;99.90
41471;DHT22;27211;51.220;5.308;2023-02-28T06:59:53;1.10;99.90
41471;DHT22;27211;51.220;5.308;2023-02-28T07:02:22;1.20;99.90
41471;DHT22;27211;51.220;5.308;2023-02-28T07:04:49;1.30;99.90
41471;DHT22;27211;51.220;5.308;2023-02-28T07:07:17;1.40;99.90
41471;DHT22;27211;51.220;5.308;2023-02-28T07:09:46;1.50;99.90
41471;DHT22;27211;51.220;5.308;2023-02-28T07:12:14;1.70;99.90
41471;DHT22;27211;51.220;5.308;2023-02-28T07:14:40;2.00;99.90
41471;DHT22;27211;51.220;5.308;2023-02-28T07:17:07;2.40;99.90
41471;DHT22;27211;51.220;5.308;2023-02-28T07:19:34;3.20;99.90
41471;DHT22;27211;51.220;5.308;2023-02-28T07:22:01;3.80;99.90
41471;DHT22;27211;51.220;5.308;2023-02-28T07:24:30;4.20;99.90
41471;DHT22;27211;51.220;5.308;2023-02-28T07:27:07;4.70;99.90
41471;DHT22;27211;51.220;5.308;2023-02-28T07:29:35;5.20;99.90
41471;DHT22;27211;51.220;5.308;2023-02-28T07:32:03;5.70;99.90
41471;DHT22;27211;51.220;5.308;2023-02-28T07:34:31;5.80;99.90
41471;DHT22;27211;51.220;5.308;2023-02-28T07:37:00;5.60;99.90
41471;DHT22;27211;51.220;5.308;2023-02-28T07:39:29;5.90;99.90
41471;DHT22;27211;51.220;5.308;2023-02-28T07:42:05;6.00;99.90
41471;DHT22;27211;51.220;5.308;2023-02-28T07:44:35;5.70;99.90
41471;DHT22;27211;51.220;5.308;2023-02-28T07:47:06;5.70;99.90
41471;DHT22;27211;51.220;5.308;2023-02-28T07:49:34;5.80;99.90
41471;DHT22;27211;51.220;5.308;2023-02-28T07:52:02;5.90;99.90
41471;DHT22;27211;51.220;5.308;2023-02-28T07:54:35;6.40;99.90
41471;DHT22;27211;51.220;5.308;2023-02-28T07:57:02;6.50;99.90
41471;DHT22;27211;51.220;5.308;2023-02-28T07:59:30;6.80;99.90
41471;DHT22;27211;51.220;5.308;2023-02-28T08:01:59;7.00;99.90
41471;DHT22;27211;51.220;5.308;2023-02-28T08:04:26;6.90;99.90
41471;DHT22;27211;51.220;5.308;2023-02-28T08:06:54;6.60;99.40
41471;DHT22;27211;51.220;5.308;2023-02-28T08:09:22;6.20;99.90
41471;DHT22;27211;51.220;5.308;2023-02-28T08:11:50;6.10;99.90
41471;DHT22;27211;51.220;5.308;2023-02-28T08:14:18;6.00;99.80
41471;DHT22;27211;51.220;5.308;2023-02-28T08:16:46;5.90;99.80
41471;DHT22;27211;51.220;5.308;2023-02-28T08:19:21;6.00;99.50
41471;DHT22;27211;51.220;5.308;2023-02-28T08:21:48;6.20;99.30
41471;DHT22;27211;51.220;5.308;2023-02-28T08:24:16;6.50;98.90
41471;DHT22;27211;51.220;5.308;2023-02-28T08:26:44;6.70;98.30
41471;DHT22;27211;51.220;5.308;2023-02-28T08:29:10;6.70;97.70
41471;DHT22;27211;51.220;5.308;2023-02-28T08:31:37;6.70;97.70
41471;DHT22;27211;51.220;5.308;2023-02-28T08:34:07;7.00;96.90
41471;DHT22;27211;51.220;5.308;2023-02-28T08:36:34;6.90;97.10
41471;DHT22;27211;51.220;5.308;2023-02-28T08:39:02;6.90;97.00
41471;DHT22;27211;51.220;5.308;2023-02-28T08:41:29;6.90;96.50
41471;DHT22;27211;51.220;5.308;2023-02-28T08:43:57;6.80;96.70
41471;DHT22;27211;51.220;5.308;2023-02-28T08:46:25;6.80;97.00
41471;DHT22;27211;51.220;5.308;2023-02-28T08:48:53;7.60;96.10
41471;DHT22;27211;51.220;5.308;2023-02-28T08:51:27;7.90;94.90
41471;DHT22;27211;51.220;5.308;2023-02-28T08:53:55;8.40;93.80
41471;DHT22;27211;51.220;5.308;2023-02-28T08:56:24;8.70;93.50
41471;DHT22;27211;51.220;5.308;2023-02-28T08:58:53;8.90;91.60
41471;DHT22;27211;51.220;5.308;2023-02-28T09:01:22;9.40;91.20
41471;DHT22;27211;51.220;5.308;2023-02-28T09:03:49;9.70;90.70
41471;DHT22;27211;51.220;5.308;2023-02-28T09:06:25;10.00;90.00
41471;DHT22;27211;51.220;5.308;2023-02-28T09:08:59;9.50;88.30
41471;DHT22;27211;51.220;5.308;2023-02-28T09:11:28;10.10;87.10
41471;DHT22;27211;51.220;5.308;2023-02-28T09:13:55;10.80;83.30
41471;DHT22;27211;51.220;5.308;2023-02-28T09:16:22;10.70;80.30
41471;DHT22;27211;51.220;5.308;2023-02-28T09:18:57;10.70;78.70
41471;DHT22;27211;51.220;5.308;2023-02-28T09:21:26;10.20;77.80
41471;DHT22;27211;51.220;5.308;2023-02-28T09:23:54;10.90;77.60
41471;DHT22;27211;51.220;5.308;2023-02-28T09:26:26;11.90;73.50
41471;DHT22;27211;51.220;5.308;2023-02-28T09:28:54;10.80;72.00
41471;DHT22;27211;51.220;5.308;2023-02-28T09:31:26;10.80;71.40
41471;DHT22;27211;51.220;5.308;2023-02-28T09:33:54;10.80;71.80
41471;DHT22;27211;51.220;5.308;2023-02-28T09:36:25;11.20;68.90
41471;DHT22;27211;51.220;5.308;2023-02-28T09:38:52;11.60;68.10
41471;DHT22;27211;51.220;5.308;2023-02-28T09:41:27;11.30;66.60
41471;DHT22;27211;51.220;5.308;2023-02-28T09:44:01;10.40;67.70
41471;DHT22;27211;51.220;5.308;2023-02-28T09:46:31;11.40;66.40
41471;DHT22;27211;51.220;5.308;2023-02-28T09:49:00;11.10;64.50
41471;DHT22;27211;51.220;5.308;2023-02-28T09:54:14;11.20;65.30
41471;DHT22;27211;51.220;5.308;2023-02-28T09:56:45;12.00;63.90
41471;DHT22;27211;51.220;5.308;2023-02-28T09:59:18;12.60;62.20
41471;DHT22;27211;51.220;5.308;2023-02-28T10:04:35;12.40;60.30
41471;DHT22;27211;51.220;5.308;2023-02-28T10:06:58;12.00;62.60
41471;DHT22;27211;51.220;5.308;2023-02-28T10:09:26;12.00;61.70
41471;DHT22;27211;51.220;5.308;2023-02-28T10:11:57;12.10;61.60
41471;DHT22;27211;51.220;5.308;2023-02-28T10:14:27;11.70;59.50
41471;DHT22;27211;51.220;5.308;2023-02-28T10:19:22;10.40;61.20
41471;DHT22;27211;51.220;5.308;2023-02-28T10:27:01;13.50;58.80
41471;DHT22;27211;51.220;5.308;2023-02-28T10:29:36;13.20;56.80
41471;DHT22;27211;51.220;5.308;2023-02-28T10:32:09;13.70;55.40
41471;DHT22;27211;51.220;5.308;2023-02-28T10:34:37;12.60;55.50
41471;DHT22;27211;51.220;5.308;2023-02-28T10:37:05;13.10;56.70
41471;DHT22;27211;51.220;5.308;2023-02-28T10:42:05;13.90;54.40
41471;DHT22;27211;51.220;5.308;2023-02-28T10:44:43;14.00;53.60
41471;DHT22;27211;51.220;5.308;2023-02-28T10:47:16;13.50;53.10
41471;DHT22;27211;51.220;5.308;2023-02-28T10:49:49;13.60;52.50
41471;DHT22;27211;51.220;5.308;2023-02-28T10:52:37;13.10;52.20
41471;DHT22;27211;51.220;5.308;2023-02-28T10:55:14;12.40;53.10
41471;DHT22;27211;51.220;5.308;2023-02-28T10:57:41;13.20;53.50
41471;DHT22;27211;51.220;5.308;2023-02-28T11:00:18;13.90;52.10
41471;DHT22;27211;51.220;5.308;2023-02-28T11:02:47;13.60;51.50
41471;DHT22;27211;51.220;5.308;2023-02-28T11:05:27;13.60;50.70
41471;DHT22;27211;51.220;5.308;2023-02-28T11:07:54;13.00;51.20
41471;DHT22;27211;51.220;5.308;2023-02-28T11:10:21;13.00;52.70
41471;DHT22;27211;51.220;5.308;2023-02-28T11:12:49;13.30;50.60
41471;DHT22;27211;51.220;5.308;2023-02-28T11:17:55;12.90;51.30
41471;DHT22;27211;51.220;5.308;2023-02-28T11:20:22;13.50;51.60
41471;DHT22;27211;51.220;5.308;2023-02-28T11:22:50;14.10;50.20
41471;DHT22;27211;51.220;5.308;2023-02-28T11:25:21;14.40;49.20
41471;DHT22;27211;51.220;5.308;2023-02-28T11:27:50;14.10;49.20
41471;DHT22;27211;51.220;5.308;2023-02-28T11:35:54;12.40;51.40
41471;DHT22;27211;51.220;5.308;2023-02-28T11:38:22;13.60;50.50
41471;DHT22;27211;51.220;5.308;2023-02-28T11:46:06;15.00;49.20
41471;DHT22;27211;51.220;5.308;2023-02-28T16:07:04;7.60;62.50
41471;DHT22;27211;51.220;5.308;2023-02-28T16:09:32;7.70;62.60
41471;DHT22;27211;51.220;5.308;2023-02-28T16:12:00;7.70;62.60
41471;DHT22;27211;51.220;5.308;2023-02-28T16:14:31;7.60;62.60
41471;DHT22;27211;51.220;5.308;2023-02-28T16:17:05;7.50;63.00
41471;DHT22;27211;51.220;5.308;2023-02-28T16:19:32;7.40;63.30
41471;DHT22;27211;51.220;5.308;2023-02-28T16:22:00;7.30;63.60
41471;DHT22;27211;51.220;5.308;2023-02-28T16:24:35;7.20;63.90
41471;DHT22;27211;51.220;5.308;2023-02-28T16:27:03;7.20;64.30
41471;DHT22;27211;51.220;5.308;2023-02-28T16:29:31;7.30;63.80
41471;DHT22;27211;51.220;5.308;2023-02-28T16:31:58;7.30;64.10
41471;DHT22;27211;51.220;5.308;2023-02-28T16:34:24;7.20;64.00
41471;DHT22;27211;51.220;5.308;2023-02-28T16:36:52;7.00;64.50
41471;DHT22;27211;51.220;5.308;2023-02-28T16:39:20;7.00;65.10
41471;DHT22;27211;51.220;5.308;2023-02-28T16:41:49;7.10;65.20
41471;DHT22;27211;51.220;5.308;2023-02-28T16:44:33;7.00;64.90
41471;DHT22;27211;51.220;5.308;2023-02-28T16:47:03;7.00;65.80
41471;DHT22;27211;51.220;5.308;2023-02-28T16:49:29;7.20;65.20
41471;DHT22;27211;51.220;5.308;2023-02-28T16:51:57;7.30;65.70
41471;DHT22;27211;51.220;5.308;2023-02-28T16:54:24;7.20;65.80
41471;DHT22;27211;51.220;5.308;2023-02-28T16:56:52;7.30;65.90
41471;DHT22;27211;51.220;5.308;2023-02-28T16:59:23;7.20;66.00
41471;DHT22;27211;51.220;5.308;2023-02-28T17:01:49;7.30;66.40
41471;DHT22;27211;51.220;5.308;2023-02-28T17:04:16;7.20;66.70
41471;DHT22;27211;51.220;5.308;2023-02-28T17:06:43;7.20;67.20
41471;DHT22;27211;51.220;5.308;2023-02-28T17:09:18;7.10;67.50
41471;DHT22;27211;51.220;5.308;2023-02-28T17:11:46;7.10;67.60
41471;DHT22;27211;51.220;5.308;2023-02-28T17:14:14;6.90;68.20
41471;DHT22;27211;51.220;5.308;2023-02-28T17:16:41;6.80;69.10
41471;DHT22;27211;51.220;5.308;2023-02-28T17:19:11;6.90;69.10
41471;DHT22;27211;51.220;5.308;2023-02-28T17:21:43;6.60;69.50
41471;DHT22;27211;51.220;5.308;2023-02-28T17:24:11;6.60;70.10
41471;DHT22;27211;51.220;5.308;2023-02-28T17:26:41;6.40;70.70
41471;DHT22;27211;51.220;5.308;2023-02-28T17:29:16;6.60;70.80
41471;DHT22;27211;51.220;5.308;2023-02-28T17:31:43;6.60;70.90
41471;DHT22;27211;51.220;5.308;2023-02-28T17:34:10;6.60;70.80
41471;DHT22;27211;51.220;5.308;2023-02-28T17:36:46;6.50;71.30
41471;DHT22;27211;51.220;5.308;2023-02-28T17:39:21;6.40;71.60
41471;DHT22;27211;51.220;5.308;2023-02-28T17:41:51;6.30;72.50
41471;DHT22;27211;51.220;5.308;2023-02-28T17:44:18;6.30;72.90
41471;DHT22;27211;51.220;5.308;2023-02-28T17:46:45;6.10;73.50
41471;DHT22;27211;51.220;5.308;2023-02-28T17:49:15;6.10;74.00
41471;DHT22;27211;51.220;5.308;2023-02-28T17:51:42;6.00;74.60
41471;DHT22;27211;51.220;5.308;2023-02-28T17:54:11;6.10;74.90
41471;DHT22;27211;51.220;5.308;2023-02-28T17:56:39;6.00;75.30
41471;DHT22;27211;51.220;5.308;2023-02-28T17:59:05;6.00;75.60
41471;DHT22;27211;51.220;5.308;2023-02-28T18:01:32;5.90;76.20
41471;DHT22;27211;51.220;5.308;2023-02-28T18:03:58;5.90;76.50
41471;DHT22;27211;51.220;5.308;2023-02-28T18:06:28;5.70;77.20
41471;DHT22;27211;51.220;5.308;2023-02-28T18:08:57;5.70;77.60
41471;DHT22;27211;51.220;5.308;2023-02-28T18:11:23;5.60;78.00
41471;DHT22;27211;51.220;5.308;2023-02-28T18:13:50;5.60;78.00
41471;DHT22;27211;51.220;5.308;2023-02-28T18:16:17;5.50;79.10
41471;DHT22;27211;51.220;5.308;2023-02-28T18:18:44;5.50;79.20
41471;DHT22;27211;51.220;5.308;2023-02-28T18:21:31;5.50;79.40
41471;DHT22;27211;51.220;5.308;2023-02-28T18:23:57;5.50;79.60
41471;DHT22;27211;51.220;5.308;2023-02-28T18:26:24;5.30;80.40
41471;DHT22;27211;51.220;5.308;2023-02-28T18:28:50;5.30;81.40
41471;DHT22;27211;51.220;5.308;2023-02-28T18:31:18;5.10;81.70
41471;DHT22;27211;51.220;5.308;2023-02-28T18:33:49;5.10;82.00
41471;DHT22;27211;51.220;5.308;2023-02-28T18:36:24;5.30;82.00
41471;DHT22;27211;51.220;5.308;2023-02-28T18:38:50;5.60;80.90
41471;DHT22;27211;51.220;5.308;2023-02-28T18:41:21;5.30;82.10
41471;DHT22;27211;51.220;5.308;2023-02-28T18:43:47;5.20;82.40
41471;DHT22;27211;51.220;5.308;2023-02-28T18:46:15;5.10;83.30
41471;DHT22;27211;51.220;5.308;2023-02-28T18:48:42;5.10;84.00
41471;DHT22;27211;51.220;5.308;2023-02-28T18:51:16;5.20;83.80
41471;DHT22;27211;51.220;5.308;2023-02-28T18:53:43;5.10;84.40
41471;DHT22;27211;51.220;5.308;2023-02-28T18:56:11;5.10;84.90
41471;DHT22;27211;51.220;5.308;2023-02-28T18:58:38;5.10;85.00
41471;DHT22;27211;51.220;5.308;2023-02-28T19:01:11;4.90;86.10
41471;DHT22;27211;51.220;5.308;2023-02-28T19:03:38;4.70;87.00
41471;DHT22;27211;51.220;5.308;2023-02-28T19:06:05;4.70;87.90
41471;DHT22;27211;51.220;5.308;2023-02-28T19:08:32;4.60;88.40
41471;DHT22;27211;51.220;5.308;2023-02-28T19:11:10;4.60;88.80
41471;DHT22;27211;51.220;5.308;2023-02-28T19:13:37;4.50;89.50
41471;DHT22;27211;51.220;5.308;2023-02-28T19:16:06;4.50;89.60
41471;DHT22;27211;51.220;5.308;2023-02-28T19:18:35;4.50;90.10
41471;DHT22;27211;51.220;5.308;2023-02-28T19:21:01;4.50;90.20
41471;DHT22;27211;51.220;5.308;2023-02-28T19:23:30;4.40;90.50
41471;DHT22;27211;51.220;5.308;2023-02-28T19:25:56;4.20;91.00
41471;DHT22;27211;51.220;5.308;2023-02-28T19:28:27;4.20;91.20
41471;DHT22;27211;51.220;5.308;2023-02-28T19:30:53;4.20;91.40
41471;DHT22;27211;51.220;5.308;2023-02-28T19:33:20;4.30;91.50
41471;DHT22;27211;51.220;5.308;2023-02-28T19:35:46;4.20;91.60
41471;DHT22;27211;51.220;5.308;2023-02-28T19:38:13;4.20;92.20
41471;DHT22;27211;51.220;5.308;2023-02-28T19:40:40;4.10;92.30
41471;DHT22;27211;51.220;5.308;2023-02-28T19:43:09;4.00;92.50
41471;DHT22;27211;51.220;5.308;2023-02-28T19:45:39;4.10;92.90
41471;DHT22;27211;51.220;5.308;2023-02-28T19:48:05;4.00;93.00
41471;DHT22;27211;51.220;5.308;2023-02-28T19:50:34;4.00;93.30
41471;DHT22;27211;51.220;5.308;2023-02-28T19:53:01;3.90;93.50
41471;DHT22;27211;51.220;5.308;2023-02-28T19:55:28;3.90;93.70
41471;DHT22;27211;51.220;5.308;2023-02-28T19:57:57;3.90;93.90
41471;DHT22;27211;51.220;5.308;2023-02-28T20:00:23;3.80;94.20
41471;DHT22;27211;51.220;5.308;2023-02-28T20:02:50;3.90;94.20
41471;DHT22;27211;51.220;5.308;2023-02-28T20:05:19;3.90;94.50
41471;DHT22;27211;51.220;5.308;2023-02-28T20:07:48;3.80;94.40
41471;DHT22;27211;51.220;5.308;2023-02-28T20:10:16;3.80;94.60
41471;DHT22;27211;51.220;5.308;2023-02-28T20:12:47;3.70;94.90
41471;DHT22;27211;51.220;5.308;2023-02-28T20:20:25;3.60;96.00
41471;DHT22;27211;51.220;5.308;2023-02-28T20:22:54;3.60;96.20
41471;DHT22;27211;51.220;5.308;2023-02-28T20:25:33;3.50;95.80
41471;DHT22;27211;51.220;5.308;2023-02-28T20:28:04;3.40;96.30
41471;DHT22;27211;51.220;5.308;2023-02-28T20:30:30;3.30;97.30
41471;DHT22;27211;51.220;5.308;2023-02-28T20:33:00;3.30;97.90
41471;DHT22;27211;51.220;5.308;2023-02-28T20:35:26;3.30;98.10
41471;DHT22;27211;51.220;5.308;2023-02-28T20:37:53;3.30;98.40
41471;DHT22;27211;51.220;5.308;2023-02-28T20:40:27;3.30;98.30
41471;DHT22;27211;51.220;5.308;2023-02-28T20:42:57;3.20;98.70
41471;DHT22;27211;51.220;5.308;2023-02-28T20:45:24;3.20;98.80
41471;DHT22;27211;51.220;5.308;2023-02-28T20:47:51;3.30;98.70
41471;DHT22;27211;51.220;5.308;2023-02-28T20:50:19;3.30;98.90
41471;DHT22;27211;51.220;5.308;2023-02-28T20:52:49;3.20;99.10
41471;DHT22;27211;51.220;5.308;2023-02-28T20:55:21;3.20;99.30
41471;DHT22;27211;51.220;5.308;2023-02-28T20:57:47;3.20;99.50
41471;DHT22;27211;51.220;5.308;2023-02-28T21:00:14;3.30;99.40
41471;DHT22;27211;51.220;5.308;2023-02-28T21:02:44;3.20;99.50
41471;DHT22;27211;51.220;5.308;2023-02-28T21:05:24;3.10;99.80
41471;DHT22;27211;51.220;5.308;2023-02-28T21:07:53;3.10;99.90
41471;DHT22;27211;51.220;5.308;2023-02-28T21:10:22;3.10;99.90
41471;DHT22;27211;51.220;5.308;2023-02-28T21:12:52;3.10;99.90
41471;DHT22;27211;51.220;5.308;2023-02-28T21:15:25;3.00;99.90
41471;DHT22;27211;51.220;5.308;2023-02-28T21:17:51;3.00;99.90
41471;DHT22;27211;51.220;5.308;2023-02-28T21:20:20;3.00;99.90
41471;DHT22;27211;51.220;5.308;2023-02-28T21:22:49;3.00;99.90
